Keating Summit, Pennsylvania
Current Conditions -  °F | °C
As of 12:53 PM on Saturday 25 Oct 2014 (Local Time) from KBFD Reporting Station
Broken Clouds Broken Clouds  
Wind Chill: 59°   Ceiling: 5000
Heat Index: 59°   Visibility: 10mi
Dew Point: 47°   Wind: 9mph
Humidity: 64%   Direction: 240°WSW
Pressure: 29.77"   Gusts: 23mph
Location:  41.791°N, 78.5153°W
Report Text: KBFD 251653Z AUTO 24008G20KT 10SM FEW026 BKN050 15/08 A2977 RMK AO2 SLP083 T01500083
Loading
Personal Weather Stations






























Interactive Weather Map
Tropical Storm Tracking
New forecast layout! Learn more

10-Day Weather Forecast

Advertisements
Track Severe Weather on mobile